Time;durP1;ratioP1;P1;durP2;ratioP2;P2;SDS_P1;SDS_P2;PMS_P1;PMS_P2;Temp;Humidity;BMP_temperature;BMP_pressure;BME280_temperature;BME280_humidity;BME280_pressure;Samples;Min_cycle;Max_cycle;Signal;HPM_P1;HPM_P2
2021/11/27 00:04:51;;;;;;;23.67;5.43;;;;;;;;;;10375567;28;20057;-83
2021/11/27 00:09:53;;;;;;;40.37;7.77;;;;;;;;;;10361535;28;20627;-78
2021/11/27 00:14:57;;;;;;;25.90;4.67;;;;;;;;;;10354007;28;20053;-78
2021/11/27 00:20:01;;;;;;;35.13;8.23;;;;;;;;;;10369173;28;20037;-79
2021/11/27 00:25:05;;;;;;;23.90;5.00;;;;;;;;;;10377586;28;20094;-79
2021/11/27 00:30:09;;;;;;;35.40;8.83;;;;;;;;;;10374854;28;20038;-78
2021/11/27 00:35:11;;;;;;;;;;;;;;;;;;10365443;28;20049;-80
2021/11/27 00:40:17;;;;;;;18.50;5.80;;;;;;;;;;10364519;28;19953;-81
2021/11/27 00:45:20;;;;;;;18.23;4.57;;;;;;;;;;10370727;28;20147;-79
2021/11/27 00:50:25;;;;;;;16.07;4.70;;;;;;;;;;10383458;28;20049;-79
2021/11/27 00:55:31;;;;;;;15.43;5.17;;;;;;;;;;10370107;28;20042;-79
2021/11/27 01:00:35;;;;;;;4.83;2.33;;;;;;;;;;10372326;28;20043;-79
2021/11/27 01:05:38;;;;;;;8.40;2.23;;;;;;;;;;10364770;28;20054;-79
2021/11/27 01:10:44;;;;;;;15.10;5.27;;;;;;;;;;10375032;28;20077;-82
2021/11/27 01:15:47;;;;;;;5.63;2.10;;;;;;;;;;10405174;28;20042;-81
2021/11/27 01:20:51;;;;;;;3.53;1.90;;;;;;;;;;10391535;28;20062;-82
2021/11/27 01:25:56;;;;;;;12.47;3.53;;;;;;;;;;10372086;28;20109;-79
2021/11/27 01:31:00;;;;;;;14.43;3.43;;;;;;;;;;10366123;28;20048;-79
2021/11/27 01:36:05;;;;;;;7.77;3.00;;;;;;;;;;10361580;28;20050;-79
2021/11/27 01:41:07;;;;;;;;;;;;;;;;;;10375845;28;20046;-83
2021/11/27 01:46:12;;;;;;;15.20;5.80;;;;;;;;;;10358357;28;20025;-81
2021/11/27 01:51:17;;;;;;;8.87;2.93;;;;;;;;;;10358884;28;20618;-83
2021/11/27 01:56:21;;;;;;;5.03;1.70;;;;;;;;;;10358991;28;20589;-83
2021/11/27 02:01:27;;;;;;;1.73;0.97;;;;;;;;;;10373662;28;20052;-80
2021/11/27 02:06:30;;;;;;;4.43;2.23;;;;;;;;;;10361882;28;20050;-81
2021/11/27 02:11:35;;;;;;;5.80;2.47;;;;;;;;;;10369536;28;20148;-82
2021/11/27 02:16:53;;;;;;;6.17;1.70;;;;;;;;;;10365458;28;20050;-81
2021/11/27 02:21:58;;;;;;;4.53;2.30;;;;;;;;;;10366901;28;20069;-82
2021/11/27 02:27:00;;;;;;;;;;;;;;;;;;10356046;28;20038;-79
2021/11/27 02:32:08;;;;;;;2.77;1.27;;;;;;;;;;10356405;28;19921;-81
2021/11/27 02:37:24;;;;;;;3.07;1.53;;;;;;;;;;10351246;28;20037;-80
2021/11/27 02:42:26;;;;;;;;;;;;;;;;;;10357502;28;20451;-81
2021/11/27 02:47:29;;;;;;;4.10;2.17;;;;;;;;;;10355569;28;19929;-78
2021/11/27 02:52:34;;;;;;;1.57;1.10;;;;;;;;;;10355138;28;20096;-80
2021/11/27 02:57:37;;;;;;;4.03;2.50;;;;;;;;;;10356949;28;20403;-80
2021/11/27 03:02:40;;;;;;;5.10;1.87;;;;;;;;;;10362390;28;20200;-79
2021/11/27 03:07:44;;;;;;;3.53;1.70;;;;;;;;;;10362154;28;20044;-81
2021/11/27 03:12:49;;;;;;;2.80;1.70;;;;;;;;;;10359960;28;20053;-80
2021/11/27 03:17:52;;;;;;;3.72;2.00;;;;;;;;;;10359525;28;20196;-81
2021/11/27 03:22:56;;;;;;;1.80;0.90;;;;;;;;;;10371094;28;20516;-80
2021/11/27 03:27:59;;;;;;;2.73;1.77;;;;;;;;;;10358776;28;20068;-80
2021/11/27 03:33:02;;;;;;;4.20;2.17;;;;;;;;;;10350671;28;20120;-80
2021/11/27 03:38:06;;;;;;;4.37;2.10;;;;;;;;;;10356018;28;20037;-80
2021/11/27 03:43:09;;;;;;;3.60;1.80;;;;;;;;;;10358394;28;20061;-81
2021/11/27 03:48:14;;;;;;;4.30;2.67;;;;;;;;;;10344789;28;20065;-81
2021/11/27 03:53:19;;;;;;;5.40;2.27;;;;;;;;;;10352249;28;20042;-81
2021/11/27 03:58:22;;;;;;;4.27;2.63;;;;;;;;;;10379406;28;20100;-81
2021/11/27 04:03:25;;;;;;;5.77;2.87;;;;;;;;;;10360926;28;20229;-81
2021/11/27 04:08:30;;;;;;;5.13;2.17;;;;;;;;;;10367705;28;20093;-80
2021/11/27 04:13:33;;;;;;;4.87;2.33;;;;;;;;;;10365787;28;20045;-79
2021/11/27 04:18:56;;;;;;;6.63;2.90;;;;;;;;;;10359845;28;20038;-80
2021/11/27 04:24:00;;;;;;;4.70;2.63;;;;;;;;;;10362295;28;20363;-80
2021/11/27 04:29:03;;;;;;;5.97;2.93;;;;;;;;;;10366991;28;20103;-80
2021/11/27 04:34:07;;;;;;;1.43;0.87;;;;;;;;;;10362499;28;20052;-80
2021/11/27 04:39:12;;;;;;;4.38;2.08;;;;;;;;;;10371219;28;20073;-79
2021/11/27 04:44:14;;;;;;;;;;;;;;;;;;10375617;28;20379;-80
2021/11/27 04:49:17;;;;;;;5.27;2.40;;;;;;;;;;10376539;28;19953;-81
2021/11/27 04:54:22;;;;;;;5.07;2.43;;;;;;;;;;10375188;28;20054;-80
2021/11/27 04:59:25;;;;;;;8.37;4.17;;;;;;;;;;10374735;28;20101;-81
2021/11/27 05:04:28;;;;;;;2.97;1.97;;;;;;;;;;10371424;28;20717;-81
2021/11/27 05:09:32;;;;;;;6.60;2.40;;;;;;;;;;10357730;28;20729;-81
2021/11/27 05:14:35;;;;;;;10.53;4.23;;;;;;;;;;10370099;28;20044;-80
2021/11/27 05:19:39;;;;;;;9.63;3.13;;;;;;;;;;10381775;28;20141;-80
2021/11/27 05:24:45;;;;;;;5.47;3.03;;;;;;;;;;10380688;28;20064;-80
2021/11/27 05:29:49;;;;;;;8.90;4.10;;;;;;;;;;10374845;28;20509;-81
2021/11/27 05:34:53;;;;;;;6.77;2.87;;;;;;;;;;10365547;28;20187;-80
2021/11/27 05:39:58;;;;;;;3.77;1.73;;;;;;;;;;10372085;28;20482;-82
2021/11/27 05:45:01;;;;;;;5.97;2.57;;;;;;;;;;10372347;28;20191;-81
2021/11/27 05:50:04;;;;;;;5.20;2.10;;;;;;;;;;10371530;28;20045;-80
2021/11/27 05:55:09;;;;;;;7.07;2.90;;;;;;;;;;10368229;28;20058;-79
2021/11/27 06:00:16;;;;;;;6.97;3.10;;;;;;;;;;10374090;28;20355;-81
2021/11/27 06:05:19;;;;;;;3.15;1.42;;;;;;;;;;10370195;28;20127;-80
2021/11/27 06:10:24;;;;;;;3.63;2.20;;;;;;;;;;10373532;28;20042;-80
2021/11/27 06:15:27;;;;;;;5.40;2.60;;;;;;;;;;10361436;28;20053;-81
2021/11/27 06:20:30;;;;;;;3.10;1.57;;;;;;;;;;10378346;28;20113;-80
2021/11/27 06:25:34;;;;;;;4.67;1.80;;;;;;;;;;10373084;28;20046;-82
2021/11/27 06:30:40;;;;;;;3.60;2.00;;;;;;;;;;10374329;28;20526;-80
2021/11/27 06:35:43;;;;;;;2.23;1.07;;;;;;;;;;10357836;28;20061;-83
2021/11/27 06:40:47;;;;;;;7.13;4.13;;;;;;;;;;10373583;28;20092;-78
2021/11/27 06:45:50;;;;;;;;;;;;;;;;;;10365924;28;20042;-78
2021/11/27 06:50:53;;;;;;;2.47;1.40;;;;;;;;;;10365855;28;19922;-80
2021/11/27 06:55:58;;;;;;;2.10;1.37;;;;;;;;;;10371075;28;20165;-79
2021/11/27 07:01:02;;;;;;;3.07;1.30;;;;;;;;;;10360987;28;20050;-79
2021/11/27 07:06:06;;;;;;;3.10;2.05;;;;;;;;;;10370197;28;20046;-83
2021/11/27 07:11:10;;;;;;;2.67;1.20;;;;;;;;;;10366340;28;20061;-81
2021/11/27 07:16:13;;;;;;;5.50;2.30;;;;;;;;;;10360748;28;20133;-80
2021/11/27 07:21:16;;;;;;;8.20;2.87;;;;;;;;;;10378724;28;20053;-83
2021/11/27 07:26:21;;;;;;;1.40;0.82;;;;;;;;;;10385937;28;20492;-84
2021/11/27 07:31:25;;;;;;;3.27;1.40;;;;;;;;;;10380455;28;20090;-83
2021/11/27 07:36:29;;;;;;;2.73;1.07;;;;;;;;;;10375069;28;20730;-83
2021/11/27 07:41:39;;;;;;;3.77;1.53;;;;;;;;;;10376278;28;20042;-82
2021/11/27 07:46:43;;;;;;;2.97;1.43;;;;;;;;;;10376362;28;20053;-87
2021/11/27 07:51:46;;;;;;;3.90;1.60;;;;;;;;;;10381625;28;20038;-80
2021/11/27 07:56:51;;;;;;;3.30;1.50;;;;;;;;;;10374196;28;20033;-82
2021/11/27 08:01:54;;;;;;;5.30;2.30;;;;;;;;;;10381271;28;20042;-82
2021/11/27 08:06:58;;;;;;;3.77;2.23;;;;;;;;;;10363972;28;20437;-83
2021/11/27 08:12:02;;;;;;;6.47;3.33;;;;;;;;;;10367308;28;20045;-82
2021/11/27 08:17:06;;;;;;;3.30;1.70;;;;;;;;;;10374155;28;20084;-82
2021/11/27 08:22:09;;;;;;;4.93;2.23;;;;;;;;;;10371927;28;20416;-82
2021/11/27 08:27:13;;;;;;;7.43;2.20;;;;;;;;;;10371473;28;20065;-83
2021/11/27 08:32:16;;;;;;;6.47;3.17;;;;;;;;;;10355353;28;20077;-82
2021/11/27 08:37:19;;;;;;;6.60;3.50;;;;;;;;;;10361152;28;20045;-82
2021/11/27 08:42:27;;;;;;;4.13;2.13;;;;;;;;;;10384462;28;20038;-80
2021/11/27 08:47:30;;;;;;;4.97;2.30;;;;;;;;;;10366850;28;20038;-82
2021/11/27 08:52:33;;;;;;;7.13;3.80;;;;;;;;;;10369295;28;20562;-81
2021/11/27 08:57:39;;;;;;;3.53;2.13;;;;;;;;;;10360505;28;20101;-82
2021/11/27 09:02:42;;;;;;;6.37;2.53;;;;;;;;;;10364651;28;20041;-83
2021/11/27 09:07:45;;;;;;;2.87;1.57;;;;;;;;;;10365478;28;20084;-81
2021/11/27 09:12:50;;;;;;;6.53;2.70;;;;;;;;;;10380959;28;20053;-82
2021/11/27 09:17:53;;;;;;;3.73;1.67;;;;;;;;;;10384579;28;20045;-82
2021/11/27 09:22:56;;;;;;;7.33;3.70;;;;;;;;;;10380247;28;20038;-80
2021/11/27 09:28:01;;;;;;;4.93;2.37;;;;;;;;;;10359535;28;20046;-81
2021/11/27 09:33:04;;;;;;;5.23;2.63;;;;;;;;;;10373507;28;20300;-82
2021/11/27 09:38:07;;;;;;;5.87;2.30;;;;;;;;;;10368428;28;20063;-82
2021/11/27 09:43:12;;;;;;;5.00;2.07;;;;;;;;;;10361977;28;20104;-81
2021/11/27 09:48:15;;;;;;;7.27;2.60;;;;;;;;;;10367651;28;20289;-81
2021/11/27 09:53:20;;;;;;;3.40;1.60;;;;;;;;;;10370123;28;20115;-80
2021/11/27 09:58:25;;;;;;;4.83;2.73;;;;;;;;;;10376876;28;20116;-79
2021/11/27 10:03:28;;;;;;;;;;;;;;;;;;10373326;28;20042;-80
2021/11/27 10:08:35;;;;;;;2.90;0.90;;;;;;;;;;10363729;28;20029;-81
2021/11/27 10:13:39;;;;;;;5.80;2.40;;;;;;;;;;10358277;28;20482;-80
2021/11/27 10:18:42;;;;;;;3.33;1.83;;;;;;;;;;10368093;28;20077;-79
2021/11/27 10:23:45;;;;;;;2.70;1.37;;;;;;;;;;10372881;28;20088;-81
2021/11/27 10:28:50;;;;;;;1.48;1.10;;;;;;;;;;10380412;28;20107;-82
2021/11/27 10:33:59;;;;;;;6.07;2.80;;;;;;;;;;10364272;28;20057;-81
2021/11/27 10:39:07;;;;;;;6.18;3.20;;;;;;;;;;10376398;28;20080;-82
2021/11/27 10:44:11;;;;;;;7.43;3.30;;;;;;;;;;10365452;28;20073;-80
2021/11/27 10:49:24;;;;;;;3.65;1.83;;;;;;;;;;10365255;28;20346;-79
2021/11/27 10:54:42;;;;;;;4.10;2.37;;;;;;;;;;10356724;28;20065;-80
2021/11/27 10:59:46;;;;;;;4.80;1.97;;;;;;;;;;10370485;28;20045;-78
2021/11/27 11:04:59;;;;;;;4.07;1.73;;;;;;;;;;10373927;28;20537;-80
2021/11/27 11:10:07;;;;;;;3.53;1.60;;;;;;;;;;10356247;28;20053;-80
2021/11/27 11:15:16;;;;;;;2.03;1.02;;;;;;;;;;10368147;28;20050;-81
2021/11/27 11:20:21;;;;;;;4.63;2.17;;;;;;;;;;10352482;28;20167;-82
2021/11/27 11:25:24;;;;;;;2.17;1.48;;;;;;;;;;10368670;28;20072;-82
2021/11/27 11:30:38;;;;;;;2.90;1.33;;;;;;;;;;10365130;28;20090;-81
2021/11/27 11:35:41;;;;;;;1.88;1.23;;;;;;;;;;10366364;28;20054;-81
2021/11/27 11:40:46;;;;;;;4.10;2.22;;;;;;;;;;10375508;28;20042;-81
2021/11/27 11:45:50;;;;;;;4.63;2.22;;;;;;;;;;10364039;28;20141;-79
2021/11/27 11:51:00;;;;;;;4.78;2.05;;;;;;;;;;10365375;28;20064;-81
2021/11/27 11:56:05;;;;;;;2.55;1.77;;;;;;;;;;10362724;28;20080;-78
2021/11/27 12:01:17;;;;;;;4.15;2.20;;;;;;;;;;10364925;28;20043;-81
2021/11/27 12:06:24;;;;;;;17.55;4.18;;;;;;;;;;10374173;28;20828;-80
2021/11/27 12:11:43;;;;;;;2.47;1.20;;;;;;;;;;10358971;28;20038;-78
2021/11/27 12:17:01;;;;;;;7.90;2.72;;;;;;;;;;10364111;28;20104;-79
2021/11/27 12:22:23;;;;;;;4.63;2.50;;;;;;;;;;10362572;28;20077;-79
2021/11/27 12:27:28;;;;;;;9.45;1.95;;;;;;;;;;10388970;28;20093;-80
2021/11/27 12:32:36;;;;;;;19.40;4.65;;;;;;;;;;10389116;28;20577;-80
2021/11/27 12:37:39;;;;;;;22.30;5.95;;;;;;;;;;10388983;28;20133;-80
2021/11/27 12:42:43;;;;;;;10.52;3.63;;;;;;;;;;10403599;28;20057;-80
2021/11/27 12:47:46;;;;;;;4.13;1.10;;;;;;;;;;10390199;28;20047;-80
2021/11/27 12:52:49;;;;;;;7.70;4.30;;;;;;;;;;10374691;28;20057;-80
2021/11/27 12:57:54;;;;;;;11.20;6.45;;;;;;;;;;10379213;28;20034;-79
2021/11/27 13:02:59;;;;;;;6.50;2.97;;;;;;;;;;10383503;28;20081;-82
2021/11/27 13:08:08;;;;;;;4.45;2.10;;;;;;;;;;10366339;28;20050;-82
2021/11/27 13:13:17;;;;;;;7.32;2.92;;;;;;;;;;10361722;28;20052;-78
2021/11/27 13:20:02;;;;;;;1.73;1.27;;;;;;;;;;10516944;27;20387;-69
2021/11/27 13:25:05;;;;;;;;;;;;;;;;;;10517099;28;20047;-69
2021/11/27 13:30:09;;;;;;;1.40;0.93;;;;;;;;;;10511251;28;19924;-70
2021/11/27 13:35:12;;;;;;;;;;;;;;;;;;10512442;28;20444;-68
2021/11/27 13:40:18;;;;;;;2.07;1.37;;;;;;;;;;10506534;28;19991;-72
2021/11/27 13:45:22;;;;;;;2.88;1.35;;;;;;;;;;10498410;28;20048;-72
2021/11/27 13:50:25;;;;;;;2.93;1.73;;;;;;;;;;10504739;28;20036;-70
2021/11/27 13:55:31;;;;;;;1.33;0.93;;;;;;;;;;10508294;28;20040;-71
2021/11/27 14:00:35;;;;;;;1.93;1.13;;;;;;;;;;10508368;28;20044;-72
2021/11/27 14:05:39;;;;;;;2.33;1.17;;;;;;;;;;10502926;28;20087;-69
2021/11/27 14:10:57;;;;;;;3.67;1.75;;;;;;;;;;10507802;28;20508;-70
2021/11/27 14:16:00;;;;;;;3.03;1.42;;;;;;;;;;10509460;28;20044;-70
2021/11/27 14:21:13;;;;;;;3.58;1.83;;;;;;;;;;10506270;28;20036;-69
2021/11/27 14:26:19;;;;;;;6.25;2.13;;;;;;;;;;10508257;28;20040;-68
2021/11/27 14:31:23;;;;;;;2.05;1.15;;;;;;;;;;10482491;28;20055;-71
2021/11/27 14:36:26;;;;;;;2.33;1.10;;;;;;;;;;10478681;28;20532;-70
2021/11/27 14:41:32;;;;;;;1.75;1.08;;;;;;;;;;10471756;28;20163;-71
2021/11/27 14:46:38;;;;;;;0.75;0.65;;;;;;;;;;10464052;28;20068;-67
2021/11/27 14:51:41;;;;;;;0.87;0.50;;;;;;;;;;10470903;28;20036;-68
2021/11/27 14:56:45;;;;;;;0.88;0.70;;;;;;;;;;10472315;28;20174;-68
2021/11/27 15:01:47;;;;;;;;;;;;;;;;;;10481372;28;20072;-72
2021/11/27 15:06:51;;;;;;;4.80;1.90;;;;;;;;;;10470653;28;20363;-69
2021/11/27 15:11:55;;;;;;;7.47;2.22;;;;;;;;;;10482456;28;20059;-70
2021/11/27 15:16:58;;;;;;;1.83;1.10;;;;;;;;;;10498996;28;20377;-70
2021/11/27 15:22:01;;;;;;;1.77;1.10;;;;;;;;;;10476901;28;20040;-68
2021/11/27 15:27:06;;;;;;;0.90;0.63;;;;;;;;;;10475773;28;20053;-69
2021/11/27 15:32:09;;;;;;;3.38;1.23;;;;;;;;;;10474460;28;20150;-71
2021/11/27 15:37:11;;;;;;;2.58;1.10;;;;;;;;;;10478154;28;20490;-69
2021/11/27 15:42:16;;;;;;;1.83;1.10;;;;;;;;;;10470737;28;20046;-71
2021/11/27 15:47:22;;;;;;;2.70;1.30;;;;;;;;;;10474679;28;20072;-70
2021/11/27 15:52:25;;;;;;;2.73;1.20;;;;;;;;;;10480414;28;20131;-69
2021/11/27 15:57:29;;;;;;;3.47;1.70;;;;;;;;;;10479137;28;20119;-73
2021/11/27 16:02:32;;;;;;;3.93;2.30;;;;;;;;;;10480857;28;20036;-69
2021/11/27 16:07:37;;;;;;;3.03;1.43;;;;;;;;;;10482062;28;20036;-67
2021/11/27 16:12:41;;;;;;;4.77;2.03;;;;;;;;;;10468897;28;20052;-68
2021/11/27 16:17:44;;;;;;;2.13;1.20;;;;;;;;;;10478556;28;20063;-71
2021/11/27 16:23:05;;;;;;;2.83;1.63;;;;;;;;;;10480209;28;20208;-68
2021/11/27 16:28:09;;;;;;;5.47;2.10;;;;;;;;;;10474523;28;20067;-69
2021/11/27 16:33:11;;;;;;;;;;;;;;;;;;10484063;28;20384;-66
2021/11/27 16:38:15;;;;;;;2.83;1.67;;;;;;;;;;10475048;28;20284;-69
2021/11/27 16:43:19;;;;;;;3.13;1.50;;;;;;;;;;10472300;28;20058;-67
2021/11/27 16:48:22;;;;;;;2.30;1.63;;;;;;;;;;10468523;28;20040;-69
2021/11/27 16:53:25;;;;;;;5.50;1.40;;;;;;;;;;10474239;28;20051;-67
2021/11/27 16:58:29;;;;;;;2.80;1.10;;;;;;;;;;10475825;28;20488;-68
2021/11/27 17:03:32;;;;;;;4.70;1.50;;;;;;;;;;10469553;28;20260;-69
2021/11/27 17:08:35;;;;;;;3.20;1.17;;;;;;;;;;10471515;28;20113;-71
2021/11/27 17:13:46;;;;;;;4.90;1.23;;;;;;;;;;10473805;28;20045;-70
2021/11/27 17:18:51;;;;;;;1.90;1.60;;;;;;;;;;10472887;28;20043;-71
2021/11/27 17:23:54;;;;;;;6.60;2.30;;;;;;;;;;10479993;28;20056;-71
2021/11/27 17:28:58;;;;;;;5.17;2.23;;;;;;;;;;10473721;28;20033;-70
2021/11/27 17:34:00;;;;;;;;;;;;;;;;;;10471927;28;20086;-71
2021/11/27 17:39:04;;;;;;;3.93;1.27;;;;;;;;;;10470901;28;19973;-70
2021/11/27 17:44:08;;;;;;;9.93;2.57;;;;;;;;;;10476464;28;20055;-71
2021/11/27 17:49:11;;;;;;;15.63;4.22;;;;;;;;;;10478829;28;20075;-70
2021/11/27 17:54:14;;;;;;;25.63;6.20;;;;;;;;;;10477942;28;20040;-72
2021/11/27 17:59:18;;;;;;;10.57;2.70;;;;;;;;;;10475166;28;20086;-71
2021/11/27 18:04:21;;;;;;;6.63;2.10;;;;;;;;;;10475943;28;20079;-69
2021/11/27 18:09:24;;;;;;;10.13;2.47;;;;;;;;;;10483388;28;20062;-70
2021/11/27 18:14:30;;;;;;;4.77;2.23;;;;;;;;;;10484680;28;20105;-69
2021/11/27 18:19:32;;;;;;;4.50;1.87;;;;;;;;;;10483964;28;20067;-69
2021/11/27 18:24:36;;;;;;;3.93;1.83;;;;;;;;;;10486587;28;20047;-70
2021/11/27 18:29:41;;;;;;;3.58;1.92;;;;;;;;;;10487873;28;20033;-71
2021/11/27 18:34:44;;;;;;;4.83;2.23;;;;;;;;;;10482148;28;20102;-69
2021/11/27 18:39:47;;;;;;;2.03;1.30;;;;;;;;;;10478924;28;20036;-71
2021/11/27 18:44:51;;;;;;;7.00;2.80;;;;;;;;;;10483928;28;20090;-70
2021/11/27 18:49:56;;;;;;;8.83;3.23;;;;;;;;;;10484018;28;20039;-70
2021/11/27 18:54:58;;;;;;;29.97;9.20;;;;;;;;;;10474648;28;20041;-70
2021/11/27 19:00:03;;;;;;;34.43;8.13;;;;;;;;;;10514954;28;20441;-69
2021/11/27 19:05:06;;;;;;;4.00;1.40;;;;;;;;;;10483568;28;20060;-69
2021/11/27 19:10:10;;;;;;;10.73;4.30;;;;;;;;;;10479137;28;20028;-69
2021/11/27 19:15:14;;;;;;;20.33;5.13;;;;;;;;;;10480897;28;20040;-69
2021/11/27 19:20:17;;;;;;;;;;;;;;;;;;10481234;28;20116;-70
2021/11/27 19:25:20;;;;;;;7.53;3.07;;;;;;;;;;10478425;28;20050;-69
2021/11/27 19:30:25;;;;;;;7.97;3.70;;;;;;;;;;10477218;28;20036;-70
2021/11/27 19:35:28;;;;;;;4.10;2.30;;;;;;;;;;10476720;28;20127;-68
2021/11/27 19:40:31;;;;;;;5.43;2.30;;;;;;;;;;10473034;28;20041;-69
2021/11/27 19:45:35;;;;;;;4.93;1.60;;;;;;;;;;10475012;28;20131;-69
2021/11/27 19:50:38;;;;;;;;;;;;;;;;;;10474088;28;20625;-69
2021/11/27 19:55:41;;;;;;;13.13;5.17;;;;;;;;;;10475413;28;19935;-70
2021/11/27 20:00:46;;;;;;;5.20;1.80;;;;;;;;;;10478266;28;20074;-69
2021/11/27 20:05:49;;;;;;;12.17;3.90;;;;;;;;;;10484178;28;20079;-70
2021/11/27 20:10:53;;;;;;;8.00;1.43;;;;;;;;;;10478358;28;20527;-68
2021/11/27 20:15:57;;;;;;;9.07;1.43;;;;;;;;;;10470751;28;20137;-69
2021/11/27 20:21:01;;;;;;;4.17;2.23;;;;;;;;;;10465401;28;20745;-70
2021/11/27 20:26:05;;;;;;;1.73;0.60;;;;;;;;;;10474029;28;20095;-70
2021/11/27 20:31:10;;;;;;;2.73;1.50;;;;;;;;;;10480904;28;20475;-70
2021/11/27 20:36:13;;;;;;;9.90;3.43;;;;;;;;;;10477410;28;20079;-70
2021/11/27 20:41:16;;;;;;;2.63;1.23;;;;;;;;;;10475541;28;20102;-70
2021/11/27 20:46:22;;;;;;;4.17;1.83;;;;;;;;;;10480494;28;20482;-69
2021/11/27 20:51:25;;;;;;;5.43;2.00;;;;;;;;;;10477995;28;20512;-71
2021/11/27 20:56:30;;;;;;;3.27;1.43;;;;;;;;;;10478498;28;20523;-71
2021/11/27 21:01:34;;;;;;;4.23;1.90;;;;;;;;;;10469038;28;20033;-70
2021/11/27 21:06:39;;;;;;;4.33;2.07;;;;;;;;;;10472780;28;20111;-71
2021/11/27 21:11:41;;;;;;;;;;;;;;;;;;10464896;28;20089;-71
2021/11/27 21:16:46;;;;;;;1.90;0.97;;;;;;;;;;10475699;28;19950;-71
2021/11/27 21:21:49;;;;;;;4.43;1.93;;;;;;;;;;10476387;28;20045;-71
2021/11/27 21:26:52;;;;;;;4.93;1.87;;;;;;;;;;10477335;28;20044;-69
2021/11/27 21:31:56;;;;;;;6.37;2.47;;;;;;;;;;10476497;28;20212;-70
2021/11/27 21:36:59;;;;;;;1.20;0.80;;;;;;;;;;10494893;28;20044;-70
2021/11/27 21:42:03;;;;;;;4.73;2.00;;;;;;;;;;10501540;28;20059;-69
2021/11/27 21:47:07;;;;;;;10.52;2.88;;;;;;;;;;10494935;28;20040;-69
2021/11/27 21:52:10;;;;;;;23.83;5.57;;;;;;;;;;10486807;28;20078;-72
2021/11/27 21:57:13;;;;;;;15.67;3.77;;;;;;;;;;10483305;28;20055;-69
2021/11/27 22:02:17;;;;;;;32.77;6.97;;;;;;;;;;10466605;28;20076;-70
2021/11/27 22:07:20;;;;;;;13.93;3.63;;;;;;;;;;10481299;28;20064;-69
2021/11/27 22:12:24;;;;;;;3.20;1.73;;;;;;;;;;10485252;28;20492;-71
2021/11/27 22:17:28;;;;;;;5.37;2.23;;;;;;;;;;10487805;28;20094;-70
2021/11/27 22:22:30;;;;;;;;;;;;;;;;;;10488774;28;20060;-70
2021/11/27 22:27:33;;;;;;;5.87;2.20;;;;;;;;;;10482866;28;20363;-69
2021/11/27 22:32:38;;;;;;;6.27;2.37;;;;;;;;;;10487141;28;20037;-68
2021/11/27 22:37:40;;;;;;;;;;;;;;;;;;10481314;28;20360;-69
2021/11/27 22:42:43;;;;;;;2.70;1.30;;;;;;;;;;10483588;28;19920;-70
2021/11/27 22:47:47;;;;;;;5.20;2.03;;;;;;;;;;10481646;28;20045;-67
2021/11/27 22:52:50;;;;;;;;;;;;;;;;;;10477503;28;20025;-69
2021/11/27 22:57:53;;;;;;;3.30;1.93;;;;;;;;;;10483073;28;20304;-69
2021/11/27 23:02:57;;;;;;;3.03;1.70;;;;;;;;;;10481826;28;20094;-69
2021/11/27 23:08:00;;;;;;;4.43;2.50;;;;;;;;;;10482606;28;20384;-69
2021/11/27 23:13:03;;;;;;;2.40;0.90;;;;;;;;;;10481762;28;20036;-70
2021/11/27 23:18:11;;;;;;;5.17;1.83;;;;;;;;;;10483487;28;20136;-70
2021/11/27 23:23:14;;;;;;;5.93;2.63;;;;;;;;;;10490623;28;20462;-69
2021/11/27 23:28:20;;;;;;;3.20;1.50;;;;;;;;;;10482288;28;20036;-71
2021/11/27 23:33:24;;;;;;;2.60;1.50;;;;;;;;;;10483441;28;20108;-68
2021/11/27 23:38:27;;;;;;;1.42;0.57;;;;;;;;;;10480760;28;20060;-70
2021/11/27 23:43:30;;;;;;;4.73;1.50;;;;;;;;;;10471495;28;20064;-69
2021/11/27 23:48:34;;;;;;;2.80;1.00;;;;;;;;;;10488103;28;20041;-69
2021/11/27 23:53:38;;;;;;;4.83;1.90;;;;;;;;;;10477341;28;20385;-69
2021/11/27 23:58:43;;;;;;;4.20;1.90;;;;;;;;;;10479791;28;20076;-69
